createdAt,value
2019-04-23T00:00:45.546Z,0.00
2019-04-23T00:02:03.794Z,0.00
2019-04-23T00:02:44.400Z,0.00
2019-04-23T00:03:58.221Z,0.00
2019-04-23T00:04:45.207Z,0.00
2019-04-23T00:06:48.871Z,0.00
2019-04-23T00:09:46.986Z,0.00
2019-04-23T00:10:49.046Z,0.00
2019-04-23T00:11:49.585Z,0.00
2019-04-23T00:12:57.228Z,0.00
2019-04-23T00:14:05.679Z,0.00
2019-04-23T00:15:03.648Z,0.00
2019-04-23T00:15:53.312Z,0.00
2019-04-23T00:16:47.305Z,0.00
2019-04-23T00:17:42.448Z,0.00
2019-04-23T00:18:46.815Z,0.00
2019-04-23T00:20:12.918Z,0.00
2019-04-23T00:20:44.276Z,0.00
2019-04-23T00:22:49.873Z,0.00
2019-04-23T00:23:53.067Z,0.00
2019-04-23T00:26:02.772Z,0.00
2019-04-23T00:26:42.896Z,0.00
2019-04-23T00:27:47.808Z,0.00
2019-04-23T00:29:48.388Z,0.00
2019-04-23T00:32:08.151Z,0.00
2019-04-23T00:32:42.619Z,0.00
2019-04-23T00:33:44.089Z,0.00
2019-04-23T00:34:50.097Z,0.00
2019-04-23T00:36:44.299Z,0.00
2019-04-23T00:38:06.605Z,0.00
2019-04-23T00:39:49.986Z,0.00
2019-04-23T00:40:47.125Z,0.00
2019-04-23T00:41:45.755Z,0.00
2019-04-23T00:43:00.614Z,0.00
2019-04-23T00:44:01.951Z,0.00
2019-04-23T00:44:47.855Z,0.00
2019-04-23T00:45:44.598Z,0.00
2019-04-23T00:46:42.022Z,0.00
2019-04-23T00:47:48.564Z,0.00
2019-04-23T00:50:52.898Z,0.00
2019-04-23T00:51:45.640Z,0.00
2019-04-23T00:52:42.165Z,0.00
2019-04-23T00:53:42.057Z,0.00
2019-04-23T00:56:19.031Z,0.00
2019-04-23T00:57:40.603Z,0.00
2019-04-23T00:58:41.228Z,0.00
2019-04-23T00:59:44.773Z,0.00
2019-04-23T01:02:02.710Z,0.00
2019-04-23T01:02:47.432Z,0.00
2019-04-23T01:03:47.330Z,0.00
2019-04-23T01:04:48.026Z,0.00
2019-04-23T01:05:42.524Z,0.00
2019-04-23T01:06:41.513Z,0.00
2019-04-23T01:08:07.864Z,0.00
2019-04-23T01:08:59.841Z,0.00
2019-04-23T01:09:45.791Z,0.00
2019-04-23T01:10:45.841Z,0.00
2019-04-23T01:11:39.247Z,0.00
2019-04-23T01:12:51.268Z,0.00
2019-04-23T01:14:01.044Z,0.00
2019-04-23T01:14:43.027Z,0.00
2019-04-23T01:16:39.317Z,0.00
2019-04-23T01:20:01.629Z,0.00
2019-04-23T01:20:45.909Z,0.00
2019-04-23T01:21:19.958Z,0.00
2019-04-23T01:22:21.055Z,0.00
2019-04-23T01:23:29.848Z,0.00
2019-04-23T01:24:25.121Z,0.00
2019-04-23T01:25:53.732Z,0.00
2019-04-23T01:26:47.972Z,0.00
2019-04-23T01:27:53.097Z,0.00
2019-04-23T01:28:49.662Z,0.00
2019-04-23T01:29:46.528Z,0.00
2019-04-23T01:30:52.083Z,0.00
2019-04-23T01:32:05.882Z,0.00
2019-04-23T01:32:41.043Z,0.00
2019-04-23T01:33:46.635Z,0.00
2019-04-23T01:34:52.330Z,0.00
2019-04-23T01:35:51.111Z,0.00
2019-04-23T01:36:41.481Z,0.00
2019-04-23T01:38:06.130Z,0.00
2019-04-23T01:38:51.105Z,0.00
2019-04-23T01:39:43.892Z,0.00
2019-04-23T01:40:40.573Z,0.00
2019-04-23T01:41:47.838Z,0.00
2019-04-23T01:42:44.629Z,0.00
2019-04-23T01:44:03.652Z,0.00
2019-04-23T01:44:53.839Z,0.00
2019-04-23T01:45:35.706Z,0.00
2019-04-23T01:46:51.055Z,0.00
2019-04-23T01:48:47.112Z,0.00
2019-04-23T01:50:48.401Z,0.00
2019-04-23T01:51:46.416Z,0.00
2019-04-23T01:52:55.038Z,0.00
2019-04-23T01:53:45.559Z,0.00
2019-04-23T01:54:45.497Z,0.00
2019-04-23T01:56:04.813Z,0.00
2019-04-23T01:56:40.007Z,0.00
2019-04-23T01:58:53.589Z,0.00
2019-04-23T01:59:49.435Z,0.00
2019-04-23T02:01:00.865Z,0.00
2019-04-23T02:02:08.682Z,0.00
2019-04-23T02:02:49.831Z,0.00
2019-04-23T02:03:48.527Z,0.00
2019-04-23T02:04:44.554Z,0.00
2019-04-23T02:06:45.464Z,0.00
2019-04-23T02:08:47.035Z,0.00
2019-04-23T02:09:52.338Z,0.00
2019-04-23T02:10:51.341Z,0.00
2019-04-23T02:11:45.602Z,0.00
2019-04-23T02:12:49.336Z,0.00
2019-04-23T02:14:11.240Z,0.00
2019-04-23T02:14:43.369Z,0.00
2019-04-23T02:15:43.961Z,0.00
2019-04-23T02:16:44.090Z,0.00
2019-04-23T02:17:47.528Z,0.00
2019-04-23T02:18:43.748Z,0.00
2019-04-23T02:20:14.119Z,0.00
2019-04-23T02:20:59.608Z,0.00
2019-04-23T02:21:47.281Z,0.00
2019-04-23T02:22:58.717Z,0.00
2019-04-23T02:23:44.403Z,0.00
2019-04-23T02:24:51.061Z,0.00
2019-04-23T02:26:04.802Z,0.00
2019-04-23T02:26:43.463Z,0.00
2019-04-23T02:27:54.060Z,0.00
2019-04-23T02:28:47.587Z,0.00
2019-04-23T02:29:51.293Z,0.00
2019-04-23T02:32:16.849Z,0.00
2019-04-23T02:32:59.267Z,0.00
2019-04-23T02:33:49.552Z,0.00
2019-04-23T02:35:55.976Z,0.00
2019-04-23T02:38:25.065Z,0.00
2019-04-23T02:38:52.388Z,0.00
2019-04-23T02:41:54.447Z,0.00
2019-04-23T02:44:45.214Z,0.00
2019-04-23T02:45:56.431Z,0.00
2019-04-23T02:47:53.004Z,0.00
2019-04-23T02:50:43.936Z,0.00
2019-04-23T02:51:54.659Z,0.00
2019-04-23T02:52:49.787Z,0.00
2019-04-23T02:56:15.291Z,0.00
2019-04-23T02:57:50.444Z,0.00
2019-04-23T03:00:07.945Z,0.00
2019-04-23T03:01:06.830Z,0.00
2019-04-23T03:02:26.275Z,0.00
2019-04-23T03:04:50.001Z,0.00
2019-04-23T03:06:55.540Z,0.00
2019-04-23T03:08:13.660Z,0.00
2019-04-23T03:08:46.538Z,0.00
2019-04-23T03:10:57.037Z,0.00
2019-04-23T03:11:47.897Z,0.00
2019-04-23T03:13:12.320Z,0.00
2019-04-23T03:14:56.108Z,0.00
2019-04-23T03:16:54.743Z,0.00
2019-04-23T03:17:57.569Z,0.00
2019-04-23T03:19:02.956Z,0.00
2019-04-23T03:20:15.202Z,0.00
2019-04-23T03:21:01.765Z,0.00
2019-04-23T03:21:52.302Z,0.00
2019-04-23T03:22:58.952Z,0.00
2019-04-23T03:25:07.127Z,0.00
2019-04-23T03:26:21.314Z,0.00
2019-04-23T03:27:41.609Z,0.00
2019-04-23T03:32:01.295Z,0.00
2019-04-23T03:38:23.508Z,0.00
2019-04-23T03:39:56.554Z,0.00
2019-04-23T03:40:50.335Z,0.00
2019-04-23T03:41:48.576Z,0.00
2019-04-23T03:42:53.839Z,0.00
2019-04-23T03:44:02.535Z,0.00
2019-04-23T03:46:00.850Z,0.00
2019-04-23T03:46:46.758Z,0.00
2019-04-23T03:47:48.686Z,0.00
2019-04-23T03:48:47.409Z,0.00
2019-04-23T03:50:38.961Z,0.00
2019-04-23T03:51:52.167Z,0.00
2019-04-23T03:53:03.491Z,0.00
2019-04-23T03:54:11.632Z,0.00
2019-04-23T03:55:06.080Z,0.00
2019-04-23T03:57:03.938Z,0.00
2019-04-23T03:58:02.364Z,4.00
2019-04-23T04:02:20.630Z,4.00
2019-04-23T04:04:14.842Z,4.00
2019-04-23T04:06:48.021Z,4.00
2019-04-23T04:08:16.016Z,4.00
2019-04-23T04:08:47.048Z,8.00
2019-04-23T04:09:48.057Z,8.00
2019-04-23T04:11:38.197Z,12.00
2019-04-23T04:12:50.036Z,12.00
2019-04-23T04:14:36.727Z,12.00
2019-04-23T04:15:01.659Z,12.00
2019-04-23T04:17:50.200Z,24.00
2019-04-23T04:18:57.301Z,24.00
2019-04-23T04:20:49.349Z,32.00
2019-04-23T04:21:52.410Z,36.00
2019-04-23T04:23:53.443Z,36.00
2019-04-23T04:26:07.058Z,48.00
2019-04-23T04:26:50.896Z,52.00
2019-04-23T04:27:53.774Z,60.00
2019-04-23T04:29:51.868Z,68.00
2019-04-23T04:30:48.280Z,76.00
2019-04-23T04:32:03.730Z,80.00
2019-04-23T04:32:56.628Z,92.00
2019-04-23T04:34:11.370Z,96.00
2019-04-23T04:35:39.243Z,112.00
2019-04-23T04:36:58.604Z,124.00
2019-04-23T04:38:16.511Z,132.00
2019-04-23T04:41:51.745Z,164.00
2019-04-23T04:42:59.037Z,172.00
2019-04-23T04:44:36.149Z,184.00
2019-04-23T04:45:57.465Z,200.00
2019-04-23T04:46:45.803Z,212.00
2019-04-23T04:47:44.974Z,220.00
2019-04-23T04:48:50.779Z,228.00
2019-04-23T04:50:09.946Z,240.00
2019-04-23T04:50:55.471Z,252.00
2019-04-23T04:54:37.630Z,292.00
2019-04-23T04:56:45.059Z,308.00
2019-04-23T04:57:52.396Z,316.00
2019-04-23T04:58:46.961Z,328.00
2019-04-23T04:59:53.996Z,332.00
2019-04-23T05:02:14.367Z,348.00
2019-04-23T05:03:04.387Z,352.00
2019-04-23T05:03:57.901Z,360.00
2019-04-23T05:04:57.675Z,368.00
2019-04-23T05:06:02.657Z,380.00
2019-04-23T05:06:51.567Z,388.00
2019-04-23T05:08:07.229Z,396.00
2019-04-23T05:08:49.216Z,408.00
2019-04-23T05:09:55.446Z,416.00
2019-04-23T05:13:11.668Z,440.00
2019-04-23T05:14:52.554Z,460.00
2019-04-23T05:16:46.708Z,480.00
2019-04-23T05:17:51.843Z,488.00
2019-04-23T05:19:08.559Z,496.00
2019-04-23T05:20:08.194Z,504.00
2019-04-23T05:20:48.335Z,516.00
2019-04-23T05:21:46.776Z,520.00
2019-04-23T05:22:49.349Z,532.00
2019-04-23T05:23:50.373Z,544.00
2019-04-23T05:24:43.299Z,552.00
2019-04-23T05:25:58.824Z,560.00
2019-04-23T05:26:55.603Z,568.00
2019-04-23T05:27:46.338Z,580.00
2019-04-23T05:28:47.051Z,588.00
2019-04-23T05:29:36.391Z,604.00
2019-04-23T05:30:46.395Z,612.00
2019-04-23T05:32:02.510Z,624.00
2019-04-23T05:32:43.268Z,632.00
2019-04-23T05:33:39.106Z,644.00
2019-04-23T05:34:40.171Z,656.00
2019-04-23T05:36:04.879Z,668.00
2019-04-23T05:36:43.442Z,680.00
2019-04-23T05:38:50.724Z,700.00
2019-04-23T05:40:50.228Z,728.00
2019-04-23T05:42:40.114Z,752.00
2019-04-23T05:44:06.911Z,768.00
2019-04-23T05:46:40.218Z,812.00
2019-04-23T05:47:39.909Z,824.00
2019-04-23T05:48:37.399Z,840.00
2019-04-23T05:50:00.658Z,856.00
2019-04-23T05:50:57.778Z,876.00
2019-04-23T05:51:48.910Z,892.00
2019-04-23T05:53:40.782Z,920.00
2019-04-23T05:54:45.009Z,936.00
2019-04-23T05:56:01.831Z,948.00
2019-04-23T05:56:38.503Z,960.00
2019-04-23T05:57:39.109Z,968.00
2019-04-23T05:58:50.270Z,976.00
2019-04-23T05:59:34.344Z,992.00
2019-04-23T06:00:54.534Z,1008.00
2019-04-23T06:01:58.849Z,1020.00
2019-04-23T06:02:41.930Z,1040.00
2019-04-23T06:03:46.526Z,1056.00
2019-04-23T06:04:38.792Z,1072.00
2019-04-23T06:05:41.496Z,1096.00
2019-04-23T06:06:45.160Z,1116.00
2019-04-23T06:08:17.751Z,1132.00
2019-04-23T06:08:43.609Z,1152.00
2019-04-23T06:09:52.093Z,1164.00
2019-04-23T06:10:45.826Z,1176.00
2019-04-23T06:12:36.877Z,1192.00
2019-04-23T06:14:39.091Z,1212.00
2019-04-23T06:15:41.678Z,1220.00
2019-04-23T06:17:59.429Z,1244.00
2019-04-23T06:18:40.814Z,1256.00
2019-04-23T06:20:02.911Z,1264.00
2019-04-23T06:20:43.659Z,1272.00
2019-04-23T06:21:47.911Z,1280.00
2019-04-23T06:23:43.547Z,1288.00
2019-04-23T06:24:37.738Z,1296.00
2019-04-23T06:26:15.012Z,1300.00
2019-04-23T06:26:51.719Z,1304.00
2019-04-23T06:28:35.085Z,1324.00
2019-04-23T06:29:50.115Z,1324.00
2019-04-23T06:31:54.064Z,1336.00
2019-04-23T06:32:38.030Z,1340.00
2019-04-23T06:34:33.663Z,1372.00
2019-04-23T06:35:35.957Z,1384.00
2019-04-23T06:36:37.170Z,1400.00
2019-04-23T06:38:45.001Z,1424.00
2019-04-23T06:39:45.958Z,1436.00
2019-04-23T06:40:34.281Z,1444.00
2019-04-23T06:41:37.579Z,1460.00
2019-04-23T06:42:38.823Z,1468.00
2019-04-23T06:44:54.874Z,1500.00
2019-04-23T06:45:33.873Z,1516.00
2019-04-23T06:46:48.789Z,1536.00
2019-04-23T06:47:54.054Z,1556.00
2019-04-23T06:48:35.247Z,1576.00
2019-04-23T06:49:55.670Z,1596.00
2019-04-23T06:50:43.272Z,1612.00
2019-04-23T06:51:46.403Z,1628.00
2019-04-23T06:52:26.117Z,1644.00
2019-04-23T06:53:33.814Z,1656.00
2019-04-23T06:54:42.375Z,1676.00
2019-04-23T06:55:59.941Z,1680.00
2019-04-23T06:56:43.620Z,1684.00
2019-04-23T06:57:41.019Z,1700.00
2019-04-23T06:58:32.634Z,1708.00
2019-04-23T06:59:35.264Z,1716.00
2019-04-23T07:00:34.160Z,1728.00
2019-04-23T07:02:13.548Z,1736.00
2019-04-23T07:02:39.159Z,1744.00
2019-04-23T07:03:38.792Z,1756.00
2019-04-23T07:04:43.357Z,1768.00
2019-04-23T07:05:50.969Z,1784.00
2019-04-23T07:06:36.761Z,1800.00
2019-04-23T07:07:57.405Z,1808.00
2019-04-23T07:08:44.694Z,1824.00
2019-04-23T07:09:26.322Z,1836.00
2019-04-23T07:10:38.946Z,1848.00
2019-04-23T07:11:33.801Z,1856.00
2019-04-23T07:12:38.567Z,1864.00
2019-04-23T07:14:38.689Z,1880.00
2019-04-23T07:16:32.502Z,1888.00
2019-04-23T07:17:30.900Z,1892.00
2019-04-23T07:18:36.148Z,1904.00
2019-04-23T07:19:58.424Z,1912.00
2019-04-23T07:20:37.805Z,1920.00
2019-04-23T07:21:53.530Z,1932.00
2019-04-23T07:22:49.889Z,1948.00
2019-04-23T07:23:41.677Z,1964.00
2019-04-23T07:24:34.819Z,1976.00
2019-04-23T07:25:56.784Z,1996.00
2019-04-23T07:26:39.007Z,2016.00
2019-04-23T07:27:30.098Z,2040.00
2019-04-23T07:28:36.308Z,2064.00
2019-04-23T07:29:31.358Z,2080.00
2019-04-23T07:30:32.871Z,2112.00
2019-04-23T07:31:59.071Z,2136.00
2019-04-23T07:32:35.759Z,2164.00
2019-04-23T07:33:35.086Z,2192.00
2019-04-23T07:34:32.092Z,2212.00
2019-04-23T07:35:30.543Z,2220.00
2019-04-23T07:36:34.188Z,2220.00
2019-04-23T07:38:08.825Z,2216.00
2019-04-23T07:38:48.224Z,2216.00
2019-04-23T07:39:35.619Z,2220.00
2019-04-23T07:40:50.138Z,2228.00
2019-04-23T07:41:43.264Z,2240.00
2019-04-23T07:42:39.123Z,2252.00
2019-04-23T07:44:06.357Z,2264.00
2019-04-23T07:45:34.928Z,2288.00
2019-04-23T07:46:40.765Z,2304.00
2019-04-23T07:47:54.101Z,2316.00
2019-04-23T07:48:29.227Z,2328.00
2019-04-23T07:50:10.965Z,2336.00
2019-04-23T07:50:48.020Z,2344.00
2019-04-23T07:51:36.821Z,2356.00
2019-04-23T07:52:41.478Z,2368.00
2019-04-23T07:53:53.586Z,2368.00
2019-04-23T07:54:38.762Z,2372.00
2019-04-23T07:56:02.278Z,2376.00
2019-04-23T07:56:36.264Z,2368.00
2019-04-23T07:57:35.013Z,2372.00
2019-04-23T07:58:28.569Z,2376.00
2019-04-23T08:00:41.772Z,2388.00
2019-04-23T08:02:01.229Z,2396.00
2019-04-23T08:02:33.591Z,2408.00
2019-04-23T08:03:48.214Z,2424.00
2019-04-23T08:04:48.427Z,2436.00
2019-04-23T08:05:35.695Z,2448.00
2019-04-23T08:06:29.367Z,2460.00
2019-04-23T08:07:55.875Z,2472.00
2019-04-23T08:08:33.291Z,2488.00
2019-04-23T08:09:34.144Z,2504.00
2019-04-23T08:10:37.626Z,2520.00
2019-04-23T08:11:42.379Z,2540.00
2019-04-23T08:13:56.998Z,2580.00
2019-04-23T08:14:32.752Z,2600.00
2019-04-23T08:15:35.333Z,2616.00
2019-04-23T08:16:33.625Z,2632.00
2019-04-23T08:17:31.280Z,2652.00
2019-04-23T08:18:36.828Z,2672.00
2019-04-23T08:20:35.845Z,2708.00
2019-04-23T08:21:31.795Z,2728.00
2019-04-23T08:22:37.269Z,2752.00
2019-04-23T08:23:37.943Z,2768.00
2019-04-23T08:24:38.169Z,2788.00
2019-04-23T08:26:02.184Z,2812.00
2019-04-23T08:28:41.955Z,2872.00
2019-04-23T08:29:30.252Z,2888.00
2019-04-23T08:30:33.413Z,2896.00
2019-04-23T08:32:21.285Z,2940.00
2019-04-23T08:33:31.622Z,2952.00
2019-04-23T08:34:39.062Z,2972.00
2019-04-23T08:35:33.942Z,2988.00
2019-04-23T08:36:37.553Z,3004.00
2019-04-23T08:38:09.509Z,3020.00
2019-04-23T08:40:36.883Z,3088.00
2019-04-23T08:43:59.440Z,3152.00
2019-04-23T08:44:40.211Z,3176.00
2019-04-23T08:45:29.901Z,3200.00
2019-04-23T08:46:43.335Z,3228.00
2019-04-23T08:47:31.865Z,3248.00
2019-04-23T08:48:49.725Z,3284.00
2019-04-23T08:49:50.823Z,3312.00
2019-04-23T08:50:32.690Z,3340.00
2019-04-23T08:51:51.452Z,3372.00
2019-04-23T08:52:32.946Z,3404.00
2019-04-23T08:54:48.413Z,3460.00
2019-04-23T08:56:41.145Z,3528.00
2019-04-23T08:57:32.161Z,3556.00
2019-04-23T08:58:32.223Z,3584.00
2019-04-23T08:59:39.921Z,3620.00
2019-04-23T09:00:43.700Z,3648.00
2019-04-23T09:02:07.717Z,3684.00
2019-04-23T09:03:33.307Z,3732.00
2019-04-23T09:04:42.079Z,3748.00
2019-04-23T09:06:27.769Z,3792.00
2019-04-23T09:07:59.776Z,3820.00
2019-04-23T09:08:44.393Z,3840.00
2019-04-23T09:09:39.766Z,3884.00
2019-04-23T09:10:34.206Z,3904.00
2019-04-23T09:11:41.750Z,3932.00
2019-04-23T09:12:37.240Z,3960.00
2019-04-23T09:13:57.551Z,3980.00
2019-04-23T09:14:31.892Z,3992.00
2019-04-23T09:15:38.872Z,4004.00
2019-04-23T09:17:34.839Z,4044.00
2019-04-23T09:20:27.712Z,4072.00
2019-04-23T09:21:37.401Z,4100.00
2019-04-23T09:22:36.089Z,4104.00
2019-04-23T09:23:43.784Z,4116.00
2019-04-23T09:24:38.275Z,4124.00
2019-04-23T09:25:56.379Z,4148.00
2019-04-23T09:26:26.092Z,4140.00
2019-04-23T09:27:33.217Z,4168.00
2019-04-23T09:28:41.926Z,4152.00
2019-04-23T09:29:42.542Z,4140.00
2019-04-23T09:30:32.379Z,4132.00
2019-04-23T09:32:28.370Z,4168.00
2019-04-23T09:33:42.795Z,4180.00
2019-04-23T09:34:34.195Z,4168.00
2019-04-23T09:35:30.826Z,4176.00
2019-04-23T09:36:37.731Z,4216.00
2019-04-23T09:37:52.659Z,4232.00
2019-04-23T09:38:31.470Z,4240.00
2019-04-23T09:39:34.875Z,4248.00
2019-04-23T09:41:27.693Z,4272.00
2019-04-23T09:43:53.893Z,4308.00
2019-04-23T09:45:33.725Z,4368.00
2019-04-23T09:46:28.915Z,4344.00
2019-04-23T09:47:37.240Z,4368.00
2019-04-23T09:48:37.345Z,4364.00
2019-04-23T09:49:56.908Z,4364.00
2019-04-23T09:52:41.031Z,5000.00
2019-04-23T09:53:35.853Z,5276.00
2019-04-23T09:54:32.464Z,5412.00
2019-04-23T09:55:48.659Z,5420.00
2019-04-23T09:56:37.669Z,5576.00
2019-04-23T09:57:36.114Z,5652.00
2019-04-23T09:58:46.320Z,6024.00
2019-04-23T10:01:44.961Z,5864.00
2019-04-23T10:02:21.582Z,5812.00
2019-04-23T10:03:20.049Z,5992.00
2019-04-23T10:04:17.046Z,6008.00
2019-04-23T10:05:13.965Z,5844.00
2019-04-23T10:06:11.898Z,5920.00
2019-04-23T10:07:40.018Z,5836.00
2019-04-23T10:08:15.244Z,5752.00
2019-04-23T10:09:06.641Z,5620.00
2019-04-23T10:10:05.343Z,5628.00
2019-04-23T10:11:05.095Z,5684.00
2019-04-23T10:12:05.159Z,5668.00
2019-04-23T10:13:26.050Z,5596.00
2019-04-23T10:14:03.703Z,5572.00
2019-04-23T10:15:10.963Z,5636.00
2019-04-23T10:16:04.437Z,5476.00
2019-04-23T10:17:04.297Z,5584.00
2019-04-23T10:18:04.579Z,5752.00
2019-04-23T10:19:24.744Z,5824.00
2019-04-23T10:20:04.640Z,5856.00
2019-04-23T10:21:03.534Z,5712.00
2019-04-23T10:22:04.928Z,5828.00
2019-04-23T10:23:04.191Z,5876.00
2019-04-23T10:24:03.526Z,5664.00
2019-04-23T10:25:25.671Z,5524.00
2019-04-23T10:26:03.862Z,5612.00
2019-04-23T10:27:04.164Z,5908.00
2019-04-23T10:28:07.274Z,6120.00
2019-04-23T10:29:03.331Z,6004.00
2019-04-23T10:30:03.983Z,5744.00
2019-04-23T10:31:25.153Z,5748.00
2019-04-23T10:32:03.859Z,5808.00
2019-04-23T10:33:03.408Z,5992.00
2019-04-23T10:34:04.433Z,6092.00
2019-04-23T10:35:14.686Z,6192.00
2019-04-23T10:36:08.825Z,6424.00
2019-04-23T10:37:34.278Z,6772.00
2019-04-23T10:38:08.211Z,7040.00
2019-04-23T10:39:10.696Z,7024.00
2019-04-23T10:40:07.362Z,7072.00
2019-04-23T10:41:04.381Z,7528.00
2019-04-23T10:42:03.482Z,7852.00
2019-04-23T10:43:25.051Z,7864.00
2019-04-23T10:44:02.955Z,7620.00
2019-04-23T10:45:14.848Z,7656.00
2019-04-23T10:46:20.437Z,7644.00
2019-04-23T10:47:30.243Z,7728.00
2019-04-23T10:48:36.801Z,7484.00
2019-04-23T10:50:35.485Z,7020.00
2019-04-23T10:51:33.906Z,7388.00
2019-04-23T10:53:39.649Z,7108.00
2019-04-23T10:54:35.868Z,7016.00
2019-04-23T10:55:58.378Z,7404.00
2019-04-23T10:56:34.947Z,7528.00
2019-04-23T10:57:36.029Z,7440.00
2019-04-23T10:58:31.465Z,7584.00
2019-04-23T10:59:21.599Z,7368.00
2019-04-23T11:00:30.741Z,7432.00
2019-04-23T11:01:52.945Z,7624.00
2019-04-23T11:04:53.718Z,7208.00
2019-04-23T11:05:42.966Z,7348.00
2019-04-23T11:06:47.171Z,7352.00
2019-04-23T11:07:42.089Z,7356.00
2019-04-23T11:08:31.243Z,7376.00
2019-04-23T11:09:42.385Z,7464.00
2019-04-23T11:10:25.950Z,7516.00
2019-04-23T11:11:40.731Z,7344.00
2019-04-23T11:12:37.493Z,7784.00
2019-04-23T11:13:56.640Z,7732.00
2019-04-23T11:14:34.315Z,7504.00
2019-04-23T11:16:55.654Z,7452.00
2019-04-23T11:17:38.443Z,7712.00
2019-04-23T11:18:40.158Z,7600.00
2019-04-23T11:19:56.953Z,7704.00
2019-04-23T11:22:44.197Z,7496.00
2019-04-23T11:23:30.928Z,7328.00
2019-04-23T11:27:46.929Z,7016.00
2019-04-23T11:29:34.215Z,6860.00
2019-04-23T11:33:30.450Z,6604.00
2019-04-23T11:34:56.721Z,6640.00
2019-04-23T11:36:49.827Z,6920.00
2019-04-23T11:38:01.635Z,6548.00
2019-04-23T11:38:12.338Z,6904.00
2019-04-23T11:39:45.920Z,6628.00
2019-04-23T11:40:28.342Z,6896.00
2019-04-23T11:42:54.533Z,6900.00
2019-04-23T11:43:48.958Z,6760.00
2019-04-23T11:44:36.486Z,6776.00
2019-04-23T11:48:04.814Z,6728.00
2019-04-23T11:48:47.495Z,6864.00
2019-04-23T11:50:01.945Z,6708.00
2019-04-23T11:52:36.330Z,6588.00
2019-04-23T11:53:34.166Z,6556.00
2019-04-23T11:54:32.287Z,6544.00
2019-04-23T11:57:42.519Z,6524.00
2019-04-23T11:59:51.889Z,5972.00
2019-04-23T12:00:44.725Z,5688.00
2019-04-23T12:01:53.312Z,5732.00
2019-04-23T12:02:33.198Z,5844.00
2019-04-23T12:03:28.700Z,6216.00
2019-04-23T12:05:37.875Z,6568.00
2019-04-23T12:06:30.168Z,6692.00
2019-04-23T12:07:52.029Z,6952.00
2019-04-23T12:08:38.468Z,7036.00
2019-04-23T12:09:40.089Z,7064.00
2019-04-23T12:10:42.949Z,6716.00
2019-04-23T12:11:52.812Z,6696.00
2019-04-23T12:12:33.064Z,6668.00
2019-04-23T12:13:52.562Z,6440.00
2019-04-23T12:15:32.845Z,6208.00
2019-04-23T12:16:43.575Z,6052.00
2019-04-23T12:17:38.797Z,5756.00
2019-04-23T12:18:34.952Z,5684.00
2019-04-23T12:20:33.734Z,5916.00
2019-04-23T12:21:43.869Z,5920.00
2019-04-23T12:22:30.400Z,5832.00
2019-04-23T12:25:02.538Z,6008.00
2019-04-23T12:26:11.558Z,6140.00
2019-04-23T12:26:40.795Z,6288.00
2019-04-23T12:27:30.519Z,6188.00
2019-04-23T12:28:30.136Z,6204.00
2019-04-23T12:29:33.434Z,6112.00
2019-04-23T12:30:34.214Z,6120.00
2019-04-23T12:31:38.403Z,6212.00
2019-04-23T12:33:40.876Z,6232.00
2019-04-23T12:34:35.815Z,6216.00
2019-04-23T12:35:25.596Z,6088.00
2019-04-23T12:36:43.746Z,6164.00
2019-04-23T12:37:52.415Z,6044.00
2019-04-23T12:38:25.705Z,5984.00
2019-04-23T12:39:34.354Z,5956.00
2019-04-23T12:40:25.096Z,6036.00
2019-04-23T12:41:31.919Z,6004.00
2019-04-23T12:42:48.515Z,6148.00
2019-04-23T12:43:47.410Z,6176.00
2019-04-23T12:44:31.536Z,6120.00
2019-04-23T12:46:29.783Z,6244.00
2019-04-23T12:47:43.645Z,6252.00
2019-04-23T12:48:44.692Z,6280.00
2019-04-23T12:50:05.037Z,6364.00
2019-04-23T12:51:34.613Z,6760.00
2019-04-23T12:52:33.908Z,6752.00
2019-04-23T12:53:30.512Z,6792.00
2019-04-23T12:54:42.641Z,6620.00
2019-04-23T12:55:43.879Z,6484.00
2019-04-23T12:56:43.960Z,6380.00
2019-04-23T12:58:32.325Z,6124.00
2019-04-23T12:59:30.870Z,5972.00
2019-04-23T13:00:37.272Z,5764.00
2019-04-23T13:01:57.606Z,5632.00
2019-04-23T13:03:30.130Z,5560.00
2019-04-23T13:04:38.095Z,5472.00
2019-04-23T13:05:28.910Z,5272.00
2019-04-23T13:06:27.879Z,5192.00
2019-04-23T13:08:33.384Z,5032.00
2019-04-23T13:09:44.311Z,5012.00
2019-04-23T13:10:30.276Z,4896.00
2019-04-23T13:11:32.561Z,4828.00
2019-04-23T13:12:36.273Z,4856.00
2019-04-23T13:13:53.232Z,4884.00
2019-04-23T13:14:36.271Z,4892.00
2019-04-23T13:17:42.306Z,5124.00
2019-04-23T13:19:53.670Z,4948.00
2019-04-23T13:20:28.062Z,4980.00
2019-04-23T13:21:51.744Z,5024.00
2019-04-23T13:22:30.483Z,4948.00
2019-04-23T13:23:30.744Z,4928.00
2019-04-23T13:24:26.003Z,4856.00
2019-04-23T13:25:54.121Z,5120.00
2019-04-23T13:26:17.793Z,5280.00
2019-04-23T13:27:38.597Z,5060.00
2019-04-23T13:28:37.678Z,4952.00
2019-04-23T13:29:38.196Z,4988.00
2019-04-23T13:31:39.992Z,4964.00
2019-04-23T13:32:31.072Z,4940.00
2019-04-23T13:33:35.494Z,4992.00
2019-04-23T13:34:34.781Z,5040.00
2019-04-23T13:36:33.025Z,5328.00
2019-04-23T13:37:55.067Z,5348.00
2019-04-23T13:38:33.474Z,5400.00
2019-04-23T13:40:36.162Z,5424.00
2019-04-23T13:41:28.841Z,5464.00
2019-04-23T13:42:41.004Z,5504.00
2019-04-23T13:43:42.637Z,5464.00
2019-04-23T13:44:27.664Z,5488.00
2019-04-23T13:45:53.612Z,5416.00
2019-04-23T13:46:23.083Z,5452.00
2019-04-23T13:48:20.124Z,5448.00
2019-04-23T13:49:51.137Z,5516.00
2019-04-23T13:50:37.326Z,5464.00
2019-04-23T13:51:27.364Z,5428.00
2019-04-23T13:52:59.405Z,5140.00
2019-04-23T13:54:46.486Z,5196.00
2019-04-23T13:55:49.105Z,5332.00
2019-04-23T14:00:35.115Z,5140.00
2019-04-23T14:01:46.904Z,5116.00
2019-04-23T14:04:38.627Z,4904.00
2019-04-23T14:05:26.839Z,4944.00
2019-04-23T14:08:41.663Z,4888.00
2019-04-23T14:09:37.954Z,4888.00
2019-04-23T14:10:35.952Z,4788.00
2019-04-23T14:12:35.194Z,4876.00
2019-04-23T14:14:34.462Z,4916.00
2019-04-23T14:15:34.182Z,4976.00
2019-04-23T14:17:38.530Z,4980.00
2019-04-23T14:19:47.807Z,4964.00
2019-04-23T14:20:28.049Z,4956.00
2019-04-23T14:23:41.168Z,4988.00
2019-04-23T14:24:45.887Z,5000.00
2019-04-23T14:26:05.250Z,5016.00
2019-04-23T14:27:26.829Z,4816.00
2019-04-23T14:28:28.152Z,4876.00
2019-04-23T14:29:31.918Z,4928.00
2019-04-23T14:30:30.004Z,4856.00
2019-04-23T14:31:43.285Z,4872.00
2019-04-23T14:33:40.120Z,4772.00
2019-04-23T14:34:25.125Z,4760.00
2019-04-23T14:35:33.177Z,4808.00
2019-04-23T14:36:28.251Z,4740.00
2019-04-23T14:38:02.560Z,4820.00
2019-04-23T14:39:28.847Z,4680.00
2019-04-23T14:40:45.822Z,4624.00
2019-04-23T14:41:27.271Z,4648.00
2019-04-23T14:42:33.812Z,4644.00
2019-04-23T14:44:20.114Z,4440.00
2019-04-23T14:45:38.795Z,4384.00
2019-04-23T14:47:27.832Z,4228.00
2019-04-23T14:48:23.379Z,4088.00
2019-04-23T14:49:59.312Z,4028.00
2019-04-23T14:50:32.203Z,3976.00
2019-04-23T14:51:32.268Z,3924.00
2019-04-23T14:52:32.542Z,3932.00
2019-04-23T14:53:24.718Z,3876.00
2019-04-23T14:54:34.414Z,3836.00
2019-04-23T14:56:20.160Z,3796.00
2019-04-23T14:59:16.328Z,3764.00
2019-04-23T15:02:28.800Z,3692.00
2019-04-23T15:03:34.157Z,3660.00
2019-04-23T15:04:28.838Z,3616.00
2019-04-23T15:05:23.705Z,3412.00
2019-04-23T15:06:27.792Z,3564.00
2019-04-23T15:07:52.155Z,3596.00
2019-04-23T15:08:30.242Z,3612.00
2019-04-23T15:09:27.532Z,3632.00
2019-04-23T15:11:44.300Z,3612.00
2019-04-23T15:14:23.354Z,3608.00
2019-04-23T15:15:24.030Z,3608.00
2019-04-23T15:18:39.391Z,3424.00
2019-04-23T15:19:48.247Z,3360.00
2019-04-23T15:20:24.961Z,3316.00
2019-04-23T15:23:40.715Z,3164.00
2019-04-23T15:24:27.945Z,3064.00
2019-04-23T15:26:19.852Z,2992.00
2019-04-23T15:27:29.597Z,2988.00
2019-04-23T15:28:07.365Z,2852.00
2019-04-23T15:29:07.010Z,2808.00
2019-04-23T15:30:15.754Z,2780.00
2019-04-23T15:32:23.925Z,2696.00
2019-04-23T15:33:49.161Z,2608.00
2019-04-23T15:38:12.424Z,2512.00
2019-04-23T15:38:40.057Z,2540.00
2019-04-23T15:39:31.144Z,2540.00
2019-04-23T15:40:22.873Z,2512.00
2019-04-23T15:41:33.463Z,2468.00
2019-04-23T15:42:25.487Z,2432.00
2019-04-23T15:43:55.258Z,2376.00
2019-04-23T15:44:16.121Z,2344.00
2019-04-23T15:45:21.370Z,2316.00
2019-04-23T15:46:35.503Z,2356.00
2019-04-23T15:47:28.430Z,2368.00
2019-04-23T15:48:22.536Z,2348.00